sensor_id;sensor_type;location;lat;lon;timestamp;temperature;humidity
6758;DHT22;3416;53.074;8.822;2022-08-19T00:02:48;19.80;99.90
6758;DHT22;3416;53.074;8.822;2022-08-19T00:05:15;19.80;99.90
6758;DHT22;3416;53.074;8.822;2022-08-19T00:07:44;19.80;99.90
6758;DHT22;3416;53.074;8.822;2022-08-19T00:10:14;19.80;99.90
6758;DHT22;3416;53.074;8.822;2022-08-19T00:12:42;19.80;99.90
6758;DHT22;3416;53.074;8.822;2022-08-19T00:15:13;19.90;99.90
6758;DHT22;3416;53.074;8.822;2022-08-19T00:17:42;19.90;99.90
6758;DHT22;3416;53.074;8.822;2022-08-19T00:20:19;19.80;99.90
6758;DHT22;3416;53.074;8.822;2022-08-19T00:22:48;19.80;99.90
6758;DHT22;3416;53.074;8.822;2022-08-19T00:25:16;19.80;99.90
6758;DHT22;3416;53.074;8.822;2022-08-19T00:27:44;19.80;99.90
6758;DHT22;3416;53.074;8.822;2022-08-19T00:30:11;19.70;99.90
6758;DHT22;3416;53.074;8.822;2022-08-19T00:32:39;19.70;99.90
6758;DHT22;3416;53.074;8.822;2022-08-19T00:35:07;19.70;99.90
6758;DHT22;3416;53.074;8.822;2022-08-19T00:37:34;19.70;99.90
6758;DHT22;3416;53.074;8.822;2022-08-19T00:40:05;19.60;99.90
6758;DHT22;3416;53.074;8.822;2022-08-19T00:42:33;19.70;99.90
6758;DHT22;3416;53.074;8.822;2022-08-19T00:45:03;19.70;99.90
6758;DHT22;3416;53.074;8.822;2022-08-19T00:47:35;19.80;99.90
6758;DHT22;3416;53.074;8.822;2022-08-19T00:50:02;19.70;99.90
6758;DHT22;3416;53.074;8.822;2022-08-19T00:52:34;19.70;99.90
6758;DHT22;3416;53.074;8.822;2022-08-19T00:55:06;19.70;99.90
6758;DHT22;3416;53.074;8.822;2022-08-19T00:57:38;19.70;99.90
6758;DHT22;3416;53.074;8.822;2022-08-19T01:00:09;19.80;99.90
6758;DHT22;3416;53.074;8.822;2022-08-19T01:02:38;19.80;99.90
6758;DHT22;3416;53.074;8.822;2022-08-19T01:05:09;19.80;99.90
6758;DHT22;3416;53.074;8.822;2022-08-19T01:07:39;19.80;99.90
6758;DHT22;3416;53.074;8.822;2022-08-19T01:10:19;19.90;99.90
6758;DHT22;3416;53.074;8.822;2022-08-19T01:12:47;19.90;99.90
6758;DHT22;3416;53.074;8.822;2022-08-19T01:15:17;19.90;99.90
6758;DHT22;3416;53.074;8.822;2022-08-19T01:17:45;19.90;99.90
6758;DHT22;3416;53.074;8.822;2022-08-19T01:20:16;19.90;99.90
6758;DHT22;3416;53.074;8.822;2022-08-19T01:22:48;19.90;99.90
6758;DHT22;3416;53.074;8.822;2022-08-19T01:25:20;19.80;99.90
6758;DHT22;3416;53.074;8.822;2022-08-19T01:27:49;19.80;99.90
6758;DHT22;3416;53.074;8.822;2022-08-19T01:30:22;19.80;99.90
6758;DHT22;3416;53.074;8.822;2022-08-19T01:32:49;19.80;99.90
6758;DHT22;3416;53.074;8.822;2022-08-19T01:35:18;19.80;99.90
6758;DHT22;3416;53.074;8.822;2022-08-19T01:37:50;19.90;99.90
6758;DHT22;3416;53.074;8.822;2022-08-19T01:40:28;19.90;99.90
6758;DHT22;3416;53.074;8.822;2022-08-19T01:42:57;19.90;99.90
6758;DHT22;3416;53.074;8.822;2022-08-19T01:45:39;20.00;99.90
6758;DHT22;3416;53.074;8.822;2022-08-19T01:48:06;20.00;99.90
6758;DHT22;3416;53.074;8.822;2022-08-19T01:50:35;20.00;99.90
6758;DHT22;3416;53.074;8.822;2022-08-19T01:53:07;20.00;99.90
6758;DHT22;3416;53.074;8.822;2022-08-19T01:55:38;19.90;99.90
6758;DHT22;3416;53.074;8.822;2022-08-19T01:58:19;19.90;99.90
6758;DHT22;3416;53.074;8.822;2022-08-19T02:00:47;19.90;99.90
6758;DHT22;3416;53.074;8.822;2022-08-19T02:03:15;19.90;99.90
6758;DHT22;3416;53.074;8.822;2022-08-19T02:05:43;19.90;99.90
6758;DHT22;3416;53.074;8.822;2022-08-19T02:08:21;19.90;99.90
6758;DHT22;3416;53.074;8.822;2022-08-19T02:10:48;19.80;99.90
6758;DHT22;3416;53.074;8.822;2022-08-19T02:13:24;19.70;99.90
6758;DHT22;3416;53.074;8.822;2022-08-19T02:15:52;19.70;99.90
6758;DHT22;3416;53.074;8.822;2022-08-19T02:18:19;19.60;99.90
6758;DHT22;3416;53.074;8.822;2022-08-19T02:20:46;19.60;99.90
6758;DHT22;3416;53.074;8.822;2022-08-19T02:23:15;19.60;99.90
6758;DHT22;3416;53.074;8.822;2022-08-19T02:25:48;19.60;99.90
6758;DHT22;3416;53.074;8.822;2022-08-19T02:28:16;19.60;99.90
6758;DHT22;3416;53.074;8.822;2022-08-19T02:30:43;19.60;99.90
6758;DHT22;3416;53.074;8.822;2022-08-19T02:33:11;19.60;99.90
6758;DHT22;3416;53.074;8.822;2022-08-19T02:35:41;19.50;99.90
6758;DHT22;3416;53.074;8.822;2022-08-19T02:38:08;19.50;99.90
6758;DHT22;3416;53.074;8.822;2022-08-19T02:40:57;19.50;99.90
6758;DHT22;3416;53.074;8.822;2022-08-19T02:43:28;19.50;99.90
6758;DHT22;3416;53.074;8.822;2022-08-19T02:45:56;19.50;99.90
6758;DHT22;3416;53.074;8.822;2022-08-19T02:48:25;19.50;99.90
6758;DHT22;3416;53.074;8.822;2022-08-19T02:50:53;19.50;99.90
6758;DHT22;3416;53.074;8.822;2022-08-19T02:53:25;19.40;99.90
6758;DHT22;3416;53.074;8.822;2022-08-19T02:55:57;19.40;99.90
6758;DHT22;3416;53.074;8.822;2022-08-19T02:58:24;19.50;99.90
6758;DHT22;3416;53.074;8.822;2022-08-19T03:00:54;19.50;99.90
6758;DHT22;3416;53.074;8.822;2022-08-19T03:03:21;19.50;99.90
6758;DHT22;3416;53.074;8.822;2022-08-19T03:05:48;19.50;99.90
6758;DHT22;3416;53.074;8.822;2022-08-19T03:08:16;19.50;99.90
6758;DHT22;3416;53.074;8.822;2022-08-19T03:10:45;19.50;99.90
6758;DHT22;3416;53.074;8.822;2022-08-19T03:13:25;19.40;99.90
6758;DHT22;3416;53.074;8.822;2022-08-19T03:15:51;19.40;99.90
6758;DHT22;3416;53.074;8.822;2022-08-19T03:18:20;19.40;99.90
6758;DHT22;3416;53.074;8.822;2022-08-19T03:20:49;19.40;99.90
6758;DHT22;3416;53.074;8.822;2022-08-19T03:23:37;19.40;99.90
6758;DHT22;3416;53.074;8.822;2022-08-19T03:26:05;19.50;99.90
6758;DHT22;3416;53.074;8.822;2022-08-19T03:28:50;19.40;99.90
6758;DHT22;3416;53.074;8.822;2022-08-19T03:31:19;19.40;99.90
6758;DHT22;3416;53.074;8.822;2022-08-19T03:33:51;19.40;99.90
6758;DHT22;3416;53.074;8.822;2022-08-19T03:36:21;19.40;99.90
6758;DHT22;3416;53.074;8.822;2022-08-19T03:38:51;19.40;99.90
6758;DHT22;3416;53.074;8.822;2022-08-19T03:41:21;19.40;99.90
6758;DHT22;3416;53.074;8.822;2022-08-19T03:43:52;19.40;99.90
6758;DHT22;3416;53.074;8.822;2022-08-19T03:46:21;19.40;99.90
6758;DHT22;3416;53.074;8.822;2022-08-19T03:48:51;19.40;99.90
6758;DHT22;3416;53.074;8.822;2022-08-19T03:51:26;19.40;99.90
6758;DHT22;3416;53.074;8.822;2022-08-19T03:53:54;19.40;99.90
6758;DHT22;3416;53.074;8.822;2022-08-19T03:56:22;19.40;99.90
6758;DHT22;3416;53.074;8.822;2022-08-19T03:58:55;19.30;99.90
6758;DHT22;3416;53.074;8.822;2022-08-19T04:01:24;19.30;99.90
6758;DHT22;3416;53.074;8.822;2022-08-19T04:03:53;19.30;99.90
6758;DHT22;3416;53.074;8.822;2022-08-19T04:06:23;19.20;99.90
6758;DHT22;3416;53.074;8.822;2022-08-19T04:08:53;19.20;99.90
6758;DHT22;3416;53.074;8.822;2022-08-19T04:11:25;19.20;99.90
6758;DHT22;3416;53.074;8.822;2022-08-19T04:13:55;19.20;99.90
6758;DHT22;3416;53.074;8.822;2022-08-19T04:16:25;19.20;99.90
6758;DHT22;3416;53.074;8.822;2022-08-19T04:18:54;19.20;99.90
6758;DHT22;3416;53.074;8.822;2022-08-19T04:21:24;19.20;99.90
6758;DHT22;3416;53.074;8.822;2022-08-19T04:23:52;19.10;99.90
6758;DHT22;3416;53.074;8.822;2022-08-19T04:26:25;19.00;99.90
6758;DHT22;3416;53.074;8.822;2022-08-19T04:28:53;19.10;99.90
6758;DHT22;3416;53.074;8.822;2022-08-19T04:31:29;19.00;99.90
6758;DHT22;3416;53.074;8.822;2022-08-19T04:33:58;19.00;99.90
6758;DHT22;3416;53.074;8.822;2022-08-19T04:36:29;19.00;99.90
6758;DHT22;3416;53.074;8.822;2022-08-19T04:39:02;19.00;99.90
6758;DHT22;3416;53.074;8.822;2022-08-19T04:41:29;18.90;99.90
6758;DHT22;3416;53.074;8.822;2022-08-19T04:44:14;19.00;99.90
6758;DHT22;3416;53.074;8.822;2022-08-19T04:46:48;19.00;99.90
6758;DHT22;3416;53.074;8.822;2022-08-19T04:49:17;19.10;99.90
6758;DHT22;3416;53.074;8.822;2022-08-19T04:51:46;19.00;99.90
6758;DHT22;3416;53.074;8.822;2022-08-19T04:54:15;19.00;99.90
6758;DHT22;3416;53.074;8.822;2022-08-19T04:56:43;18.90;99.90
6758;DHT22;3416;53.074;8.822;2022-08-19T04:59:10;18.90;99.90
6758;DHT22;3416;53.074;8.822;2022-08-19T05:01:37;18.80;99.90
6758;DHT22;3416;53.074;8.822;2022-08-19T05:04:06;18.80;99.90
6758;DHT22;3416;53.074;8.822;2022-08-19T05:06:37;18.80;99.90
6758;DHT22;3416;53.074;8.822;2022-08-19T05:09:08;18.80;99.90
6758;DHT22;3416;53.074;8.822;2022-08-19T05:11:37;18.80;99.90
6758;DHT22;3416;53.074;8.822;2022-08-19T05:14:06;18.90;99.90
6758;DHT22;3416;53.074;8.822;2022-08-19T05:16:33;18.80;99.90
6758;DHT22;3416;53.074;8.822;2022-08-19T05:19:00;18.80;99.90
6758;DHT22;3416;53.074;8.822;2022-08-19T05:21:46;18.90;99.90
6758;DHT22;3416;53.074;8.822;2022-08-19T05:24:31;18.90;99.90
6758;DHT22;3416;53.074;8.822;2022-08-19T05:27:00;19.00;99.90
6758;DHT22;3416;53.074;8.822;2022-08-19T05:29:29;19.00;99.90
6758;DHT22;3416;53.074;8.822;2022-08-19T05:31:57;19.00;99.90
6758;DHT22;3416;53.074;8.822;2022-08-19T05:34:26;19.00;99.90
6758;DHT22;3416;53.074;8.822;2022-08-19T05:36:56;18.90;99.90
6758;DHT22;3416;53.074;8.822;2022-08-19T05:39:26;18.90;99.90
6758;DHT22;3416;53.074;8.822;2022-08-19T05:41:55;19.00;99.90
6758;DHT22;3416;53.074;8.822;2022-08-19T05:44:25;19.20;99.90
6758;DHT22;3416;53.074;8.822;2022-08-19T05:46:52;19.40;99.90
6758;DHT22;3416;53.074;8.822;2022-08-19T05:49:21;19.90;99.90
6758;DHT22;3416;53.074;8.822;2022-08-19T05:51:49;20.30;99.90
6758;DHT22;3416;53.074;8.822;2022-08-19T05:54:18;20.60;99.90
6758;DHT22;3416;53.074;8.822;2022-08-19T05:56:46;20.90;99.90
6758;DHT22;3416;53.074;8.822;2022-08-19T05:59:16;21.20;99.90
6758;DHT22;3416;53.074;8.822;2022-08-19T06:01:44;21.60;99.90
6758;DHT22;3416;53.074;8.822;2022-08-19T06:04:12;22.40;99.90
6758;DHT22;3416;53.074;8.822;2022-08-19T06:06:40;23.40;99.90
6758;DHT22;3416;53.074;8.822;2022-08-19T06:09:07;24.30;99.90
6758;DHT22;3416;53.074;8.822;2022-08-19T06:11:40;25.10;99.90
6758;DHT22;3416;53.074;8.822;2022-08-19T06:14:10;25.40;99.90
6758;DHT22;3416;53.074;8.822;2022-08-19T06:16:39;26.10;99.90
6758;DHT22;3416;53.074;8.822;2022-08-19T06:19:08;26.80;99.30
6758;DHT22;3416;53.074;8.822;2022-08-19T06:21:37;27.20;97.50
6758;DHT22;3416;53.074;8.822;2022-08-19T06:24:07;26.90;96.90
6758;DHT22;3416;53.074;8.822;2022-08-19T06:26:37;26.40;98.20
6758;DHT22;3416;53.074;8.822;2022-08-19T06:29:09;26.40;97.80
6758;DHT22;3416;53.074;8.822;2022-08-19T06:31:37;26.60;97.80
6758;DHT22;3416;53.074;8.822;2022-08-19T06:34:07;27.00;96.30
6758;DHT22;3416;53.074;8.822;2022-08-19T06:36:36;26.70;96.80
6758;DHT22;3416;53.074;8.822;2022-08-19T06:39:08;26.90;96.30
6758;DHT22;3416;53.074;8.822;2022-08-19T06:41:39;27.40;95.60
6758;DHT22;3416;53.074;8.822;2022-08-19T06:44:07;28.00;94.30
6758;DHT22;3416;53.074;8.822;2022-08-19T06:46:35;28.40;94.30
6758;DHT22;3416;53.074;8.822;2022-08-19T06:49:02;28.90;92.10
6758;DHT22;3416;53.074;8.822;2022-08-19T06:51:29;29.30;91.40
6758;DHT22;3416;53.074;8.822;2022-08-19T06:53:58;29.10;91.00
6758;DHT22;3416;53.074;8.822;2022-08-19T06:56:28;29.10;91.10
6758;DHT22;3416;53.074;8.822;2022-08-19T06:59:02;29.60;90.50
6758;DHT22;3416;53.074;8.822;2022-08-19T07:01:29;30.10;88.70
6758;DHT22;3416;53.074;8.822;2022-08-19T07:03:56;30.30;90.30
6758;DHT22;3416;53.074;8.822;2022-08-19T07:06:23;30.20;90.20
6758;DHT22;3416;53.074;8.822;2022-08-19T07:08:50;29.80;90.00
6758;DHT22;3416;53.074;8.822;2022-08-19T07:11:18;29.20;89.20
6758;DHT22;3416;53.074;8.822;2022-08-19T07:13:46;28.60;90.70
6758;DHT22;3416;53.074;8.822;2022-08-19T07:16:18;28.30;91.30
6758;DHT22;3416;53.074;8.822;2022-08-19T07:18:46;28.50;91.30
6758;DHT22;3416;53.074;8.822;2022-08-19T07:21:16;28.70;90.40
6758;DHT22;3416;53.074;8.822;2022-08-19T07:23:43;29.20;90.20
6758;DHT22;3416;53.074;8.822;2022-08-19T07:26:12;30.10;87.70
6758;DHT22;3416;53.074;8.822;2022-08-19T07:28:40;30.90;85.10
6758;DHT22;3416;53.074;8.822;2022-08-19T07:31:10;31.70;82.00
6758;DHT22;3416;53.074;8.822;2022-08-19T07:33:39;32.10;81.00
6758;DHT22;3416;53.074;8.822;2022-08-19T07:36:14;32.20;78.90
6758;DHT22;3416;53.074;8.822;2022-08-19T07:38:44;32.40;79.00
6758;DHT22;3416;53.074;8.822;2022-08-19T07:41:16;32.30;78.20
6758;DHT22;3416;53.074;8.822;2022-08-19T07:43:44;31.70;78.30
6758;DHT22;3416;53.074;8.822;2022-08-19T07:46:13;31.70;79.90
6758;DHT22;3416;53.074;8.822;2022-08-19T07:48:44;31.70;78.50
6758;DHT22;3416;53.074;8.822;2022-08-19T07:51:13;31.60;78.20
6758;DHT22;3416;53.074;8.822;2022-08-19T07:53:41;31.70;78.40
6758;DHT22;3416;53.074;8.822;2022-08-19T07:56:10;32.00;78.00
6758;DHT22;3416;53.074;8.822;2022-08-19T07:58:39;32.50;76.60
6758;DHT22;3416;53.074;8.822;2022-08-19T08:01:08;32.90;74.60
6758;DHT22;3416;53.074;8.822;2022-08-19T08:03:36;33.00;73.50
6758;DHT22;3416;53.074;8.822;2022-08-19T08:06:22;32.50;74.70
6758;DHT22;3416;53.074;8.822;2022-08-19T08:09:07;32.40;75.40
6758;DHT22;3416;53.074;8.822;2022-08-19T08:11:37;33.30;73.40
6758;DHT22;3416;53.074;8.822;2022-08-19T08:14:05;34.60;72.20
6758;DHT22;3416;53.074;8.822;2022-08-19T08:16:35;35.90;68.50
6758;DHT22;3416;53.074;8.822;2022-08-19T08:19:04;36.00;65.80
6758;DHT22;3416;53.074;8.822;2022-08-19T08:21:33;35.30;66.30
6758;DHT22;3416;53.074;8.822;2022-08-19T08:24:00;34.40;66.70
6758;DHT22;3416;53.074;8.822;2022-08-19T08:26:27;34.10;67.20
6758;DHT22;3416;53.074;8.822;2022-08-19T08:28:54;33.30;68.30
6758;DHT22;3416;53.074;8.822;2022-08-19T08:31:22;32.50;69.60
6758;DHT22;3416;53.074;8.822;2022-08-19T08:33:49;31.80;71.10
6758;DHT22;3416;53.074;8.822;2022-08-19T08:36:16;31.50;73.10
6758;DHT22;3416;53.074;8.822;2022-08-19T08:38:45;31.20;73.50
6758;DHT22;3416;53.074;8.822;2022-08-19T08:41:18;31.30;74.30
6758;DHT22;3416;53.074;8.822;2022-08-19T08:43:51;31.20;74.10
6758;DHT22;3416;53.074;8.822;2022-08-19T08:46:23;31.20;75.30
6758;DHT22;3416;53.074;8.822;2022-08-19T08:48:56;31.40;74.80
6758;DHT22;3416;53.074;8.822;2022-08-19T08:51:28;31.90;73.90
6758;DHT22;3416;53.074;8.822;2022-08-19T08:53:57;32.60;72.30
6758;DHT22;3416;53.074;8.822;2022-08-19T08:56:24;32.60;71.90
6758;DHT22;3416;53.074;8.822;2022-08-19T08:58:58;32.70;71.20
6758;DHT22;3416;53.074;8.822;2022-08-19T09:01:25;32.80;71.20
6758;DHT22;3416;53.074;8.822;2022-08-19T09:03:54;33.60;69.20
6758;DHT22;3416;53.074;8.822;2022-08-19T09:06:27;34.60;67.80
6758;DHT22;3416;53.074;8.822;2022-08-19T09:09:01;35.20;65.30
6758;DHT22;3416;53.074;8.822;2022-08-19T09:11:47;35.50;63.50
6758;DHT22;3416;53.074;8.822;2022-08-19T09:14:23;35.00;64.10
6758;DHT22;3416;53.074;8.822;2022-08-19T09:16:54;35.40;64.10
6758;DHT22;3416;53.074;8.822;2022-08-19T09:19:22;36.00;63.40
6758;DHT22;3416;53.074;8.822;2022-08-19T09:21:49;35.60;61.20
6758;DHT22;3416;53.074;8.822;2022-08-19T09:24:17;34.70;62.70
6758;DHT22;3416;53.074;8.822;2022-08-19T09:26:44;34.20;63.30
6758;DHT22;3416;53.074;8.822;2022-08-19T09:29:11;33.90;64.40
6758;DHT22;3416;53.074;8.822;2022-08-19T09:31:39;33.80;65.00
6758;DHT22;3416;53.074;8.822;2022-08-19T09:34:06;34.00;64.90
6758;DHT22;3416;53.074;8.822;2022-08-19T09:36:34;33.90;64.20
6758;DHT22;3416;53.074;8.822;2022-08-19T09:39:05;34.10;65.20
6758;DHT22;3416;53.074;8.822;2022-08-19T09:41:33;34.10;65.20
6758;DHT22;3416;53.074;8.822;2022-08-19T09:44:00;34.00;63.40
6758;DHT22;3416;53.074;8.822;2022-08-19T09:46:29;33.30;64.70
6758;DHT22;3416;53.074;8.822;2022-08-19T09:48:59;32.90;66.20
6758;DHT22;3416;53.074;8.822;2022-08-19T09:51:27;32.20;67.80
6758;DHT22;3416;53.074;8.822;2022-08-19T09:53:59;32.30;67.80
6758;DHT22;3416;53.074;8.822;2022-08-19T09:56:27;32.80;67.10
6758;DHT22;3416;53.074;8.822;2022-08-19T09:58:57;33.20;66.30
6758;DHT22;3416;53.074;8.822;2022-08-19T10:01:28;33.10;64.30
6758;DHT22;3416;53.074;8.822;2022-08-19T10:03:57;32.90;64.80
6758;DHT22;3416;53.074;8.822;2022-08-19T10:06:27;32.70;64.60
6758;DHT22;3416;53.074;8.822;2022-08-19T10:08:56;33.00;63.70
6758;DHT22;3416;53.074;8.822;2022-08-19T10:11:24;33.20;64.00
6758;DHT22;3416;53.074;8.822;2022-08-19T10:13:52;34.00;63.30
6758;DHT22;3416;53.074;8.822;2022-08-19T10:16:22;34.00;62.10
6758;DHT22;3416;53.074;8.822;2022-08-19T10:18:50;33.60;62.20
6758;DHT22;3416;53.074;8.822;2022-08-19T10:21:25;33.60;63.00
6758;DHT22;3416;53.074;8.822;2022-08-19T10:23:54;33.90;63.00
6758;DHT22;3416;53.074;8.822;2022-08-19T10:26:26;34.30;61.40
6758;DHT22;3416;53.074;8.822;2022-08-19T10:28:53;34.30;61.60
6758;DHT22;3416;53.074;8.822;2022-08-19T10:31:25;34.00;62.00
6758;DHT22;3416;53.074;8.822;2022-08-19T10:33:52;33.90;61.80
6758;DHT22;3416;53.074;8.822;2022-08-19T10:36:24;33.40;62.10
6758;DHT22;3416;53.074;8.822;2022-08-19T10:38:59;32.70;63.50
6758;DHT22;3416;53.074;8.822;2022-08-19T10:41:28;32.10;63.70
6758;DHT22;3416;53.074;8.822;2022-08-19T10:43:59;31.90;65.10
6758;DHT22;3416;53.074;8.822;2022-08-19T10:46:28;31.20;64.90
6758;DHT22;3416;53.074;8.822;2022-08-19T10:48:57;30.50;67.10
6758;DHT22;3416;53.074;8.822;2022-08-19T10:51:24;30.30;68.10
6758;DHT22;3416;53.074;8.822;2022-08-19T10:54:08;30.00;67.80
6758;DHT22;3416;53.074;8.822;2022-08-19T10:56:36;29.80;69.40
6758;DHT22;3416;53.074;8.822;2022-08-19T10:59:20;29.70;68.80
6758;DHT22;3416;53.074;8.822;2022-08-19T11:01:49;29.50;69.80
6758;DHT22;3416;53.074;8.822;2022-08-19T11:04:18;29.50;70.40
6758;DHT22;3416;53.074;8.822;2022-08-19T11:06:47;29.50;70.50
6758;DHT22;3416;53.074;8.822;2022-08-19T11:09:14;29.40;69.70
6758;DHT22;3416;53.074;8.822;2022-08-19T11:11:49;29.00;68.70
6758;DHT22;3416;53.074;8.822;2022-08-19T11:14:20;28.70;70.20
6758;DHT22;3416;53.074;8.822;2022-08-19T11:16:49;28.70;71.00
6758;DHT22;3416;53.074;8.822;2022-08-19T11:19:17;28.70;68.80
6758;DHT22;3416;53.074;8.822;2022-08-19T11:21:47;28.50;69.30
6758;DHT22;3416;53.074;8.822;2022-08-19T11:24:16;28.60;69.90
6758;DHT22;3416;53.074;8.822;2022-08-19T11:26:46;28.70;69.70
6758;DHT22;3416;53.074;8.822;2022-08-19T11:29:16;28.90;69.20
6758;DHT22;3416;53.074;8.822;2022-08-19T11:31:45;28.70;68.80
6758;DHT22;3416;53.074;8.822;2022-08-19T11:34:17;28.70;69.60
6758;DHT22;3416;53.074;8.822;2022-08-19T11:36:46;28.80;68.40
6758;DHT22;3416;53.074;8.822;2022-08-19T11:39:16;28.70;67.10
6758;DHT22;3416;53.074;8.822;2022-08-19T11:41:43;28.40;67.90
6758;DHT22;3416;53.074;8.822;2022-08-19T11:44:11;28.40;67.20
6758;DHT22;3416;53.074;8.822;2022-08-19T11:46:40;28.50;67.20
6758;DHT22;3416;53.074;8.822;2022-08-19T11:49:11;28.50;67.90
6758;DHT22;3416;53.074;8.822;2022-08-19T11:51:40;28.50;67.70
6758;DHT22;3416;53.074;8.822;2022-08-19T11:54:09;28.50;68.40
6758;DHT22;3416;53.074;8.822;2022-08-19T11:56:37;28.50;68.10
6758;DHT22;3416;53.074;8.822;2022-08-19T11:59:04;28.50;69.30
6758;DHT22;3416;53.074;8.822;2022-08-19T12:01:31;28.60;69.60
6758;DHT22;3416;53.074;8.822;2022-08-19T12:03:59;28.50;68.50
6758;DHT22;3416;53.074;8.822;2022-08-19T12:06:29;28.50;69.30
6758;DHT22;3416;53.074;8.822;2022-08-19T12:09:01;28.50;68.90
6758;DHT22;3416;53.074;8.822;2022-08-19T12:11:29;28.40;68.70
6758;DHT22;3416;53.074;8.822;2022-08-19T12:13:58;28.30;69.40
6758;DHT22;3416;53.074;8.822;2022-08-19T12:16:27;28.30;68.50
6758;DHT22;3416;53.074;8.822;2022-08-19T12:18:58;28.40;69.10
6758;DHT22;3416;53.074;8.822;2022-08-19T12:21:30;28.40;67.10
6758;DHT22;3416;53.074;8.822;2022-08-19T12:24:00;28.40;67.50
6758;DHT22;3416;53.074;8.822;2022-08-19T12:26:29;28.40;67.80
6758;DHT22;3416;53.074;8.822;2022-08-19T12:28:57;28.30;67.40
6758;DHT22;3416;53.074;8.822;2022-08-19T12:31:25;28.20;68.20
6758;DHT22;3416;53.074;8.822;2022-08-19T12:33:53;28.10;69.00
6758;DHT22;3416;53.074;8.822;2022-08-19T12:36:22;28.00;69.50
6758;DHT22;3416;53.074;8.822;2022-08-19T12:38:50;28.10;68.60
6758;DHT22;3416;53.074;8.822;2022-08-19T12:41:20;28.10;68.90
6758;DHT22;3416;53.074;8.822;2022-08-19T12:43:48;28.10;69.40
6758;DHT22;3416;53.074;8.822;2022-08-19T12:46:16;28.10;68.90
6758;DHT22;3416;53.074;8.822;2022-08-19T12:48:44;28.10;69.10
6758;DHT22;3416;53.074;8.822;2022-08-19T12:51:13;28.20;68.90
6758;DHT22;3416;53.074;8.822;2022-08-19T12:53:41;28.30;69.00
6758;DHT22;3416;53.074;8.822;2022-08-19T12:56:10;28.20;68.70
6758;DHT22;3416;53.074;8.822;2022-08-19T12:58:41;28.20;68.30
6758;DHT22;3416;53.074;8.822;2022-08-19T13:01:09;28.10;67.80
6758;DHT22;3416;53.074;8.822;2022-08-19T13:03:39;28.10;67.10
6758;DHT22;3416;53.074;8.822;2022-08-19T13:06:08;28.10;67.90
6758;DHT22;3416;53.074;8.822;2022-08-19T13:08:37;28.00;67.50
6758;DHT22;3416;53.074;8.822;2022-08-19T13:11:10;28.10;67.60
6758;DHT22;3416;53.074;8.822;2022-08-19T13:13:40;28.20;67.40
6758;DHT22;3416;53.074;8.822;2022-08-19T13:16:09;28.20;65.40
6758;DHT22;3416;53.074;8.822;2022-08-19T13:18:37;28.20;65.10
6758;DHT22;3416;53.074;8.822;2022-08-19T13:21:06;28.20;64.40
6758;DHT22;3416;53.074;8.822;2022-08-19T13:23:34;28.20;64.40
6758;DHT22;3416;53.074;8.822;2022-08-19T13:26:06;28.10;62.40
6758;DHT22;3416;53.074;8.822;2022-08-19T13:28:34;28.00;61.00
6758;DHT22;3416;53.074;8.822;2022-08-19T13:31:22;27.90;60.20
6758;DHT22;3416;53.074;8.822;2022-08-19T13:34:07;28.00;60.20
6758;DHT22;3416;53.074;8.822;2022-08-19T13:36:35;28.10;60.90
6758;DHT22;3416;53.074;8.822;2022-08-19T13:39:02;28.10;61.10
6758;DHT22;3416;53.074;8.822;2022-08-19T13:41:30;28.10;60.70
6758;DHT22;3416;53.074;8.822;2022-08-19T13:43:59;28.10;61.70
6758;DHT22;3416;53.074;8.822;2022-08-19T13:46:28;28.00;61.80
6758;DHT22;3416;53.074;8.822;2022-08-19T13:48:56;28.00;61.80
6758;DHT22;3416;53.074;8.822;2022-08-19T13:51:23;28.10;63.10
6758;DHT22;3416;53.074;8.822;2022-08-19T13:53:52;28.10;64.40
6758;DHT22;3416;53.074;8.822;2022-08-19T13:56:20;28.10;65.60
6758;DHT22;3416;53.074;8.822;2022-08-19T13:58:47;28.10;65.00
6758;DHT22;3416;53.074;8.822;2022-08-19T14:01:19;28.10;65.70
6758;DHT22;3416;53.074;8.822;2022-08-19T14:03:48;28.00;66.00
6758;DHT22;3416;53.074;8.822;2022-08-19T14:06:16;27.90;66.10
6758;DHT22;3416;53.074;8.822;2022-08-19T14:08:47;27.90;66.70
6758;DHT22;3416;53.074;8.822;2022-08-19T14:11:15;28.00;66.50
6758;DHT22;3416;53.074;8.822;2022-08-19T14:13:42;28.00;66.00
6758;DHT22;3416;53.074;8.822;2022-08-19T14:16:11;28.00;66.20
6758;DHT22;3416;53.074;8.822;2022-08-19T14:18:38;27.90;66.20
6758;DHT22;3416;53.074;8.822;2022-08-19T14:21:14;27.90;67.40
6758;DHT22;3416;53.074;8.822;2022-08-19T14:23:43;27.90;68.30
6758;DHT22;3416;53.074;8.822;2022-08-19T14:26:15;27.90;69.20
6758;DHT22;3416;53.074;8.822;2022-08-19T14:28:43;28.00;69.60
6758;DHT22;3416;53.074;8.822;2022-08-19T14:31:13;28.00;69.20
6758;DHT22;3416;53.074;8.822;2022-08-19T14:33:42;28.10;69.10
6758;DHT22;3416;53.074;8.822;2022-08-19T14:36:28;28.00;70.00
6758;DHT22;3416;53.074;8.822;2022-08-19T14:38:56;28.00;70.40
6758;DHT22;3416;53.074;8.822;2022-08-19T14:41:24;28.10;70.70
6758;DHT22;3416;53.074;8.822;2022-08-19T14:44:01;28.10;70.60
6758;DHT22;3416;53.074;8.822;2022-08-19T14:46:28;28.10;71.30
6758;DHT22;3416;53.074;8.822;2022-08-19T14:48:57;28.10;71.30
6758;DHT22;3416;53.074;8.822;2022-08-19T14:51:25;28.20;71.40
6758;DHT22;3416;53.074;8.822;2022-08-19T14:57:15;28.20;71.60
6758;DHT22;3416;53.074;8.822;2022-08-19T15:02:38;28.20;72.20
6758;DHT22;3416;53.074;8.822;2022-08-19T15:05:06;28.30;72.40
6758;DHT22;3416;53.074;8.822;2022-08-19T15:07:34;28.30;72.10
6758;DHT22;3416;53.074;8.822;2022-08-19T15:10:01;28.30;72.20
6758;DHT22;3416;53.074;8.822;2022-08-19T15:12:30;28.30;72.40
6758;DHT22;3416;53.074;8.822;2022-08-19T15:15:00;28.20;72.50
6758;DHT22;3416;53.074;8.822;2022-08-19T15:17:27;28.30;72.20
6758;DHT22;3416;53.074;8.822;2022-08-19T15:19:56;28.40;72.10
6758;DHT22;3416;53.074;8.822;2022-08-19T15:22:23;28.40;72.30
6758;DHT22;3416;53.074;8.822;2022-08-19T15:24:50;28.20;72.50
6758;DHT22;3416;53.074;8.822;2022-08-19T15:27:20;28.20;73.20
6758;DHT22;3416;53.074;8.822;2022-08-19T15:29:48;28.10;73.30
6758;DHT22;3416;53.074;8.822;2022-08-19T15:32:15;28.10;73.40
6758;DHT22;3416;53.074;8.822;2022-08-19T15:34:42;28.00;72.50
6758;DHT22;3416;53.074;8.822;2022-08-19T15:37:09;28.10;73.40
6758;DHT22;3416;53.074;8.822;2022-08-19T15:39:36;28.00;74.40
6758;DHT22;3416;53.074;8.822;2022-08-19T15:42:03;27.90;73.40
6758;DHT22;3416;53.074;8.822;2022-08-19T15:44:31;27.90;73.40
6758;DHT22;3416;53.074;8.822;2022-08-19T15:47:00;28.00;73.90
6758;DHT22;3416;53.074;8.822;2022-08-19T15:49:27;28.10;76.30
6758;DHT22;3416;53.074;8.822;2022-08-19T15:51:54;28.10;76.80
6758;DHT22;3416;53.074;8.822;2022-08-19T15:54:25;28.10;76.80
6758;DHT22;3416;53.074;8.822;2022-08-19T15:56:52;28.10;76.60
6758;DHT22;3416;53.074;8.822;2022-08-19T15:59:38;28.10;76.60
6758;DHT22;3416;53.074;8.822;2022-08-19T16:02:26;28.10;76.50
6758;DHT22;3416;53.074;8.822;2022-08-19T16:05:15;27.90;77.00
6758;DHT22;3416;53.074;8.822;2022-08-19T16:08:02;28.00;77.20
6758;DHT22;3416;53.074;8.822;2022-08-19T16:10:31;28.00;77.00
6758;DHT22;3416;53.074;8.822;2022-08-19T16:13:02;27.90;76.70
6758;DHT22;3416;53.074;8.822;2022-08-19T16:15:30;27.80;76.80
6758;DHT22;3416;53.074;8.822;2022-08-19T16:18:00;27.80;77.00
6758;DHT22;3416;53.074;8.822;2022-08-19T16:20:29;27.80;77.00
6758;DHT22;3416;53.074;8.822;2022-08-19T16:22:59;27.90;76.70
6758;DHT22;3416;53.074;8.822;2022-08-19T16:25:28;27.90;75.00
6758;DHT22;3416;53.074;8.822;2022-08-19T16:27:58;27.70;74.70